sensor_id;sensor_type;location;lat;lon;timestamp;pressure;altitude;pressure_sealevel;temperature;humidity
30618;BME280;17384;51.214;9.202;2023-03-01T00:02:16;99969.47;;;-5.06;80.90
30618;BME280;17384;51.214;9.202;2023-03-01T00:04:42;99973.09;;;-5.23;80.83
30618;BME280;17384;51.214;9.202;2023-03-01T00:07:07;99973.25;;;-5.41;80.33
30618;BME280;17384;51.214;9.202;2023-03-01T00:09:33;99976.69;;;-5.39;80.73
30618;BME280;17384;51.214;9.202;2023-03-01T00:11:58;99973.81;;;-5.51;81.38
30618;BME280;17384;51.214;9.202;2023-03-01T00:14:24;99959.66;;;-5.50;81.21
30618;BME280;17384;51.214;9.202;2023-03-01T00:16:51;99950.09;;;-5.52;81.49
30618;BME280;17384;51.214;9.202;2023-03-01T00:19:18;99960.16;;;-5.59;82.00
30618;BME280;17384;51.214;9.202;2023-03-01T00:21:44;99946.00;;;-5.58;81.93
30618;BME280;17384;51.214;9.202;2023-03-01T00:24:10;99947.59;;;-5.71;82.13
30618;BME280;17384;51.214;9.202;2023-03-01T00:26:36;99973.94;;;-5.69;82.64
30618;BME280;17384;51.214;9.202;2023-03-01T00:29:02;99953.16;;;-5.75;82.53
30618;BME280;17384;51.214;9.202;2023-03-01T00:31:29;99967.91;;;-5.71;82.41
30618;BME280;17384;51.214;9.202;2023-03-01T00:33:56;99958.09;;;-5.69;82.61
30618;BME280;17384;51.214;9.202;2023-03-01T00:36:27;99948.63;;;-5.73;82.88
30618;BME280;17384;51.214;9.202;2023-03-01T00:38:53;99953.25;;;-5.61;82.67
30618;BME280;17384;51.214;9.202;2023-03-01T00:41:19;99962.72;;;-5.57;82.51
30618;BME280;17384;51.214;9.202;2023-03-01T00:43:45;99961.00;;;-5.58;82.41
30618;BME280;17384;51.214;9.202;2023-03-01T00:46:14;99968.16;;;-5.60;82.66
30618;BME280;17384;51.214;9.202;2023-03-01T00:48:40;99972.25;;;-5.55;82.51
30618;BME280;17384;51.214;9.202;2023-03-01T00:51:06;99961.84;;;-5.58;81.83
30618;BME280;17384;51.214;9.202;2023-03-01T00:53:32;99935.75;;;-5.64;81.36
30618;BME280;17384;51.214;9.202;2023-03-01T00:55:58;99942.25;;;-5.69;81.47
30618;BME280;17384;51.214;9.202;2023-03-01T00:58:24;99955.63;;;-5.72;81.35
30618;BME280;17384;51.214;9.202;2023-03-01T01:00:49;99962.88;;;-5.76;81.35
30618;BME280;17384;51.214;9.202;2023-03-01T01:03:15;99952.03;;;-5.87;81.94
30618;BME280;17384;51.214;9.202;2023-03-01T01:05:41;99956.22;;;-5.99;82.09
30618;BME280;17384;51.214;9.202;2023-03-01T01:08:06;99956.91;;;-5.95;82.36
30618;BME280;17384;51.214;9.202;2023-03-01T01:10:34;99960.75;;;-6.01;82.86
30618;BME280;17384;51.214;9.202;2023-03-01T01:13:00;99958.63;;;-6.10;82.97
30618;BME280;17384;51.214;9.202;2023-03-01T01:15:25;99962.97;;;-6.09;83.45
30618;BME280;17384;51.214;9.202;2023-03-01T01:17:51;99955.19;;;-6.12;84.47
30618;BME280;17384;51.214;9.202;2023-03-01T01:20:17;99955.53;;;-6.18;83.93
30618;BME280;17384;51.214;9.202;2023-03-01T01:22:43;99955.38;;;-6.15;84.87
30618;BME280;17384;51.214;9.202;2023-03-01T01:25:09;99946.19;;;-6.08;83.64
30618;BME280;17384;51.214;9.202;2023-03-01T01:27:34;99951.22;;;-6.03;83.84
30618;BME280;17384;51.214;9.202;2023-03-01T01:30:00;99946.69;;;-6.01;82.68
30618;BME280;17384;51.214;9.202;2023-03-01T01:32:25;99945.84;;;-6.02;82.98
30618;BME280;17384;51.214;9.202;2023-03-01T01:34:51;99940.91;;;-6.08;82.71
30618;BME280;17384;51.214;9.202;2023-03-01T01:37:16;99942.59;;;-6.07;82.93
30618;BME280;17384;51.214;9.202;2023-03-01T01:39:42;99934.84;;;-6.10;83.23
30618;BME280;17384;51.214;9.202;2023-03-01T01:42:15;99942.78;;;-6.10;83.00
30618;BME280;17384;51.214;9.202;2023-03-01T01:44:44;99929.28;;;-6.21;82.94
30618;BME280;17384;51.214;9.202;2023-03-01T01:47:14;99919.72;;;-6.24;82.73
30618;BME280;17384;51.214;9.202;2023-03-01T01:49:42;99931.31;;;-6.26;82.81
30618;BME280;17384;51.214;9.202;2023-03-01T01:57:12;99907.28;;;-6.37;83.58
30618;BME280;17384;51.214;9.202;2023-03-01T01:59:42;99906.28;;;-6.35;83.64
30618;BME280;17384;51.214;9.202;2023-03-01T02:02:09;99899.22;;;-6.34;83.83
30618;BME280;17384;51.214;9.202;2023-03-01T02:04:34;99890.75;;;-6.41;83.74
30618;BME280;17384;51.214;9.202;2023-03-01T02:07:09;99886.56;;;-6.45;84.07
30618;BME280;17384;51.214;9.202;2023-03-01T02:09:36;99897.06;;;-6.43;84.02
30618;BME280;17384;51.214;9.202;2023-03-01T02:12:03;99883.78;;;-6.42;84.03
30618;BME280;17384;51.214;9.202;2023-03-01T02:14:29;99893.16;;;-6.36;83.99
30618;BME280;17384;51.214;9.202;2023-03-01T02:16:55;99880.03;;;-6.38;84.06
30618;BME280;17384;51.214;9.202;2023-03-01T02:19:34;99899.22;;;-6.34;84.26
30618;BME280;17384;51.214;9.202;2023-03-01T02:27:15;99902.81;;;-6.53;84.63
30618;BME280;17384;51.214;9.202;2023-03-01T02:29:42;99900.16;;;-6.53;85.30
30618;BME280;17384;51.214;9.202;2023-03-01T02:32:11;99896.50;;;-6.50;85.44
30618;BME280;17384;51.214;9.202;2023-03-01T02:34:38;99893.09;;;-6.52;85.32
30618;BME280;17384;51.214;9.202;2023-03-01T02:37:09;99879.66;;;-6.47;84.26
30618;BME280;17384;51.214;9.202;2023-03-01T02:39:46;99883.16;;;-6.47;83.95
30618;BME280;17384;51.214;9.202;2023-03-01T02:42:16;99881.22;;;-6.43;83.48
30618;BME280;17384;51.214;9.202;2023-03-01T02:44:43;99876.38;;;-6.68;83.80
30618;BME280;17384;51.214;9.202;2023-03-01T02:47:09;99888.56;;;-6.66;84.04
30618;BME280;17384;51.214;9.202;2023-03-01T02:49:36;99891.06;;;-6.63;84.29
30618;BME280;17384;51.214;9.202;2023-03-01T02:52:17;99887.41;;;-6.60;84.17
30618;BME280;17384;51.214;9.202;2023-03-01T02:57:14;99881.69;;;-6.53;84.09
30618;BME280;17384;51.214;9.202;2023-03-01T02:59:41;99888.84;;;-6.55;83.97
30618;BME280;17384;51.214;9.202;2023-03-01T03:02:37;99877.69;;;-6.60;83.95
30618;BME280;17384;51.214;9.202;2023-03-01T03:05:08;99875.13;;;-6.61;83.63
30618;BME280;17384;51.214;9.202;2023-03-01T03:07:36;99864.97;;;-6.69;83.63
30618;BME280;17384;51.214;9.202;2023-03-01T03:10:05;99867.31;;;-6.80;83.62
30618;BME280;17384;51.214;9.202;2023-03-01T03:12:31;99859.75;;;-6.86;84.45
30618;BME280;17384;51.214;9.202;2023-03-01T03:14:56;99865.09;;;-6.88;84.32
30618;BME280;17384;51.214;9.202;2023-03-01T03:17:22;99869.19;;;-6.82;84.46
30618;BME280;17384;51.214;9.202;2023-03-01T03:19:48;99857.53;;;-6.78;84.31
30618;BME280;17384;51.214;9.202;2023-03-01T03:22:14;99866.06;;;-6.73;84.13
30618;BME280;17384;51.214;9.202;2023-03-01T03:24:39;99854.59;;;-6.72;84.12
30618;BME280;17384;51.214;9.202;2023-03-01T03:27:06;99856.13;;;-6.68;84.08
30618;BME280;17384;51.214;9.202;2023-03-01T03:29:32;99863.97;;;-6.66;84.35
30618;BME280;17384;51.214;9.202;2023-03-01T03:31:58;99859.72;;;-6.69;83.99
30618;BME280;17384;51.214;9.202;2023-03-01T03:34:24;99850.09;;;-6.70;84.13
30618;BME280;17384;51.214;9.202;2023-03-01T03:36:55;99843.34;;;-6.75;84.26
30618;BME280;17384;51.214;9.202;2023-03-01T03:39:27;99847.94;;;-6.79;84.45
30618;BME280;17384;51.214;9.202;2023-03-01T03:41:54;99848.69;;;-6.77;84.09
30618;BME280;17384;51.214;9.202;2023-03-01T03:44:20;99833.63;;;-6.75;83.88
30618;BME280;17384;51.214;9.202;2023-03-01T03:46:46;99835.66;;;-6.80;84.06
30618;BME280;17384;51.214;9.202;2023-03-01T03:49:11;99833.97;;;-6.81;83.89
30618;BME280;17384;51.214;9.202;2023-03-01T03:51:37;99834.31;;;-6.87;83.85
30618;BME280;17384;51.214;9.202;2023-03-01T03:54:02;99831.84;;;-6.90;83.86
30618;BME280;17384;51.214;9.202;2023-03-01T03:56:28;99834.81;;;-6.80;83.85
30618;BME280;17384;51.214;9.202;2023-03-01T03:58:54;99825.19;;;-6.82;83.96
30618;BME280;17384;51.214;9.202;2023-03-01T04:01:19;99816.84;;;-6.90;83.66
30618;BME280;17384;51.214;9.202;2023-03-01T04:03:45;99822.06;;;-6.88;83.81
30618;BME280;17384;51.214;9.202;2023-03-01T04:06:13;99827.72;;;-6.96;84.03
30618;BME280;17384;51.214;9.202;2023-03-01T04:08:39;99817.09;;;-6.94;84.26
30618;BME280;17384;51.214;9.202;2023-03-01T04:11:06;99837.13;;;-7.07;84.34
30618;BME280;17384;51.214;9.202;2023-03-01T04:13:52;99836.03;;;-7.03;84.45
30618;BME280;17384;51.214;9.202;2023-03-01T04:16:18;99832.75;;;-6.91;84.30
30618;BME280;17384;51.214;9.202;2023-03-01T04:18:44;99827.97;;;-7.00;84.51
30618;BME280;17384;51.214;9.202;2023-03-01T04:21:10;99837.81;;;-7.04;84.49
30618;BME280;17384;51.214;9.202;2023-03-01T04:23:37;99844.72;;;-7.01;84.91
30618;BME280;17384;51.214;9.202;2023-03-01T04:26:03;99829.19;;;-7.07;85.08
30618;BME280;17384;51.214;9.202;2023-03-01T04:28:40;99831.91;;;-7.09;85.44
30618;BME280;17384;51.214;9.202;2023-03-01T04:31:13;99829.97;;;-7.05;85.71
30618;BME280;17384;51.214;9.202;2023-03-01T04:33:46;99823.84;;;-7.06;85.52
30618;BME280;17384;51.214;9.202;2023-03-01T04:36:13;99810.59;;;-7.04;86.00
30618;BME280;17384;51.214;9.202;2023-03-01T04:38:39;99823.78;;;-7.04;86.00
30618;BME280;17384;51.214;9.202;2023-03-01T04:41:07;99827.97;;;-7.00;86.25
30618;BME280;17384;51.214;9.202;2023-03-01T04:43:34;99813.00;;;-7.00;86.28
30618;BME280;17384;51.214;9.202;2023-03-01T04:46:01;99824.94;;;-6.93;85.85
30618;BME280;17384;51.214;9.202;2023-03-01T04:48:28;99826.47;;;-6.89;85.06
30618;BME280;17384;51.214;9.202;2023-03-01T04:50:54;99828.97;;;-6.86;84.16
30618;BME280;17384;51.214;9.202;2023-03-01T04:53:19;99815.63;;;-6.67;84.25
30618;BME280;17384;51.214;9.202;2023-03-01T04:55:45;99822.69;;;-6.52;84.11
30618;BME280;17384;51.214;9.202;2023-03-01T04:58:10;99820.56;;;-6.61;84.07
30618;BME280;17384;51.214;9.202;2023-03-01T05:00:36;99837.59;;;-6.66;84.27
30618;BME280;17384;51.214;9.202;2023-03-01T05:03:01;99831.00;;;-6.75;84.32
30618;BME280;17384;51.214;9.202;2023-03-01T05:05:31;99830.06;;;-6.74;84.54
30618;BME280;17384;51.214;9.202;2023-03-01T05:08:00;99825.13;;;-6.80;84.15
30618;BME280;17384;51.214;9.202;2023-03-01T05:10:27;99827.91;;;-6.83;84.46
30618;BME280;17384;51.214;9.202;2023-03-01T05:12:58;99820.00;;;-6.83;84.55
30618;BME280;17384;51.214;9.202;2023-03-01T05:15:25;99823.50;;;-6.83;84.49
30618;BME280;17384;51.214;9.202;2023-03-01T05:17:52;99818.31;;;-6.84;84.61
30618;BME280;17384;51.214;9.202;2023-03-01T05:20:19;99823.59;;;-6.84;84.45
30618;BME280;17384;51.214;9.202;2023-03-01T05:22:49;99825.19;;;-6.82;85.14
30618;BME280;17384;51.214;9.202;2023-03-01T05:25:14;99821.69;;;-6.82;84.73
30618;BME280;17384;51.214;9.202;2023-03-01T05:27:40;99812.44;;;-6.89;84.35
30618;BME280;17384;51.214;9.202;2023-03-01T05:30:06;99802.50;;;-6.84;84.92
30618;BME280;17384;51.214;9.202;2023-03-01T05:32:44;99806.94;;;-6.69;85.26
30618;BME280;17384;51.214;9.202;2023-03-01T05:35:12;99810.84;;;-6.76;85.29
30618;BME280;17384;51.214;9.202;2023-03-01T05:37:42;99809.13;;;-6.77;85.36
30618;BME280;17384;51.214;9.202;2023-03-01T05:40:13;99828.44;;;-6.76;85.70
30618;BME280;17384;51.214;9.202;2023-03-01T05:42:47;99812.53;;;-6.75;85.37
30618;BME280;17384;51.214;9.202;2023-03-01T05:45:14;99814.09;;;-6.71;85.56
30618;BME280;17384;51.214;9.202;2023-03-01T05:47:41;99810.34;;;-6.67;84.82
30618;BME280;17384;51.214;9.202;2023-03-01T05:50:21;99816.31;;;-6.63;85.39
30618;BME280;17384;51.214;9.202;2023-03-01T05:52:50;99818.03;;;-6.62;85.69
30618;BME280;17384;51.214;9.202;2023-03-01T05:55:20;99816.25;;;-6.62;85.30
30618;BME280;17384;51.214;9.202;2023-03-01T05:57:46;99816.47;;;-6.66;85.60
30618;BME280;17384;51.214;9.202;2023-03-01T06:00:14;99823.78;;;-6.71;85.32
30618;BME280;17384;51.214;9.202;2023-03-01T06:02:40;99827.97;;;-6.67;85.19
30618;BME280;17384;51.214;9.202;2023-03-01T06:05:08;99805.41;;;-6.73;85.41
30618;BME280;17384;51.214;9.202;2023-03-01T06:07:34;99806.94;;;-6.69;85.19
30618;BME280;17384;51.214;9.202;2023-03-01T06:10:00;99803.53;;;-6.71;85.67
30618;BME280;17384;51.214;9.202;2023-03-01T06:12:25;99801.59;;;-6.67;85.50
30618;BME280;17384;51.214;9.202;2023-03-01T06:14:51;99806.84;;;-6.67;85.51
30618;BME280;17384;51.214;9.202;2023-03-01T06:17:16;99811.28;;;-6.68;85.41
30618;BME280;17384;51.214;9.202;2023-03-01T06:19:42;99805.84;;;-6.65;84.91
30618;BME280;17384;51.214;9.202;2023-03-01T06:22:08;99809.88;;;-6.58;85.50
30618;BME280;17384;51.214;9.202;2023-03-01T06:24:34;99812.31;;;-6.55;85.36
30618;BME280;17384;51.214;9.202;2023-03-01T06:26:59;99807.97;;;-6.56;85.42
30618;BME280;17384;51.214;9.202;2023-03-01T06:29:25;99805.06;;;-6.51;85.49
30618;BME280;17384;51.214;9.202;2023-03-01T06:31:51;99804.06;;;-6.49;85.24
30618;BME280;17384;51.214;9.202;2023-03-01T06:34:16;99807.31;;;-6.12;84.80
30618;BME280;17384;51.214;9.202;2023-03-01T06:36:42;99803.28;;;-5.73;84.21
30618;BME280;17384;51.214;9.202;2023-03-01T06:39:07;99796.72;;;-5.36;83.82
30618;BME280;17384;51.214;9.202;2023-03-01T06:41:33;99796.09;;;-5.12;82.26
30618;BME280;17384;51.214;9.202;2023-03-01T06:43:59;99793.19;;;-4.79;80.88
30618;BME280;17384;51.214;9.202;2023-03-01T06:46:25;99801.88;;;-4.48;79.26
30618;BME280;17384;51.214;9.202;2023-03-01T06:48:50;99807.97;;;-4.19;78.00
30618;BME280;17384;51.214;9.202;2023-03-01T06:51:16;99796.66;;;-4.09;77.51
30618;BME280;17384;51.214;9.202;2023-03-01T06:53:41;99795.94;;;-3.84;77.99
30618;BME280;17384;51.214;9.202;2023-03-01T06:56:07;99787.31;;;-3.60;77.72
30618;BME280;17384;51.214;9.202;2023-03-01T06:58:32;99807.44;;;-3.18;76.57
30618;BME280;17384;51.214;9.202;2023-03-01T07:00:58;99815.94;;;-3.00;75.92
30618;BME280;17384;51.214;9.202;2023-03-01T07:03:23;99815.44;;;-2.55;74.83
30618;BME280;17384;51.214;9.202;2023-03-01T07:05:50;99804.13;;;-2.46;72.69
30618;BME280;17384;51.214;9.202;2023-03-01T07:08:18;99792.22;;;-2.27;72.76
30618;BME280;17384;51.214;9.202;2023-03-01T07:10:44;99811.53;;;-1.89;71.96
30618;BME280;17384;51.214;9.202;2023-03-01T07:13:09;99809.06;;;-1.79;72.08
30618;BME280;17384;51.214;9.202;2023-03-01T07:15:35;99803.16;;;-1.48;70.59
30618;BME280;17384;51.214;9.202;2023-03-01T07:18:01;99804.88;;;-1.12;69.11
30618;BME280;17384;51.214;9.202;2023-03-01T07:20:26;99812.56;;;-0.85;68.04
30618;BME280;17384;51.214;9.202;2023-03-01T07:22:53;99811.25;;;-0.46;65.98
30618;BME280;17384;51.214;9.202;2023-03-01T07:25:18;99809.81;;;-0.27;64.44
30618;BME280;17384;51.214;9.202;2023-03-01T07:27:49;99811.25;;;-0.35;64.79
30618;BME280;17384;51.214;9.202;2023-03-01T07:30:14;99805.63;;;0.02;64.96
30618;BME280;17384;51.214;9.202;2023-03-01T07:35:11;99809.19;;;0.34;63.19
30618;BME280;17384;51.214;9.202;2023-03-01T07:37:37;99783.06;;;0.17;62.20
30618;BME280;17384;51.214;9.202;2023-03-01T07:40:03;99793.94;;;0.57;62.20
30618;BME280;17384;51.214;9.202;2023-03-01T07:42:28;99800.97;;;0.58;62.71
30618;BME280;17384;51.214;9.202;2023-03-01T07:44:54;99804.13;;;0.84;61.63
30618;BME280;17384;51.214;9.202;2023-03-01T07:47:19;99793.91;;;1.61;60.63
30618;BME280;17384;51.214;9.202;2023-03-01T07:49:44;99793.50;;;2.06;58.93
30618;BME280;17384;51.214;9.202;2023-03-01T07:52:11;99800.88;;;2.43;57.82
30618;BME280;17384;51.214;9.202;2023-03-01T07:54:37;99807.25;;;2.61;56.20
30618;BME280;17384;51.214;9.202;2023-03-01T07:57:03;99805.84;;;2.66;56.19
30618;BME280;17384;51.214;9.202;2023-03-01T07:59:28;99796.91;;;3.14;55.35
30618;BME280;17384;51.214;9.202;2023-03-01T08:01:58;99802.97;;;3.63;54.75
30618;BME280;17384;51.214;9.202;2023-03-01T08:04:23;99808.84;;;3.49;55.00
30618;BME280;17384;51.214;9.202;2023-03-01T08:06:50;99790.72;;;3.88;54.11
30618;BME280;17384;51.214;9.202;2023-03-01T08:09:16;99800.16;;;4.19;52.19
30618;BME280;17384;51.214;9.202;2023-03-01T08:11:42;99800.03;;;4.38;52.16
30618;BME280;17384;51.214;9.202;2023-03-01T08:14:07;99797.28;;;5.01;51.13
30618;BME280;17384;51.214;9.202;2023-03-01T08:16:33;99799.16;;;4.83;50.32
30618;BME280;17384;51.214;9.202;2023-03-01T08:19:05;99782.00;;;4.66;50.51
30618;BME280;17384;51.214;9.202;2023-03-01T08:21:30;99790.69;;;4.96;49.69
30618;BME280;17384;51.214;9.202;2023-03-01T08:23:56;99789.06;;;5.03;50.91
30618;BME280;17384;51.214;9.202;2023-03-01T08:26:22;99792.06;;;5.77;47.99
30618;BME280;17384;51.214;9.202;2023-03-01T08:28:49;99786.84;;;6.10;48.28
30618;BME280;17384;51.214;9.202;2023-03-01T08:31:21;99784.34;;;6.75;46.50
30618;BME280;17384;51.214;9.202;2023-03-01T08:33:49;99779.28;;;6.88;45.11
30618;BME280;17384;51.214;9.202;2023-03-01T08:36:28;99784.66;;;7.12;45.04
30618;BME280;17384;51.214;9.202;2023-03-01T08:38:54;99782.13;;;7.35;43.74
30618;BME280;17384;51.214;9.202;2023-03-01T08:41:20;99775.81;;;7.67;42.46
30618;BME280;17384;51.214;9.202;2023-03-01T08:43:46;99771.66;;;6.59;41.48
30618;BME280;17384;51.214;9.202;2023-03-01T08:46:12;99775.06;;;7.18;41.65
30618;BME280;17384;51.214;9.202;2023-03-01T08:48:38;99775.31;;;6.26;41.91
30618;BME280;17384;51.214;9.202;2023-03-01T08:51:15;99756.75;;;5.81;42.46
30618;BME280;17384;51.214;9.202;2023-03-01T08:53:42;99772.19;;;5.70;42.82
30618;BME280;17384;51.214;9.202;2023-03-01T08:56:08;99770.53;;;5.43;43.70
30618;BME280;17384;51.214;9.202;2023-03-01T08:58:34;99770.81;;;5.66;42.58
30618;BME280;17384;51.214;9.202;2023-03-01T09:01:00;99761.38;;;6.47;42.31
30618;BME280;17384;51.214;9.202;2023-03-01T09:03:26;99757.00;;;6.54;41.38
30618;BME280;17384;51.214;9.202;2023-03-01T09:05:52;99757.69;;;6.88;41.75
30618;BME280;17384;51.214;9.202;2023-03-01T09:08:19;99769.44;;;7.44;39.40
30618;BME280;17384;51.214;9.202;2023-03-01T09:10:45;99772.38;;;7.02;40.02
30618;BME280;17384;51.214;9.202;2023-03-01T09:13:11;99768.47;;;6.88;40.31
30618;BME280;17384;51.214;9.202;2023-03-01T09:15:38;99765.03;;;6.29;41.80
30618;BME280;17384;51.214;9.202;2023-03-01T09:18:04;99773.38;;;5.68;42.42
30618;BME280;17384;51.214;9.202;2023-03-01T09:20:31;99770.31;;;4.93;43.34
30618;BME280;17384;51.214;9.202;2023-03-01T09:22:56;99761.41;;;4.93;44.97
30618;BME280;17384;51.214;9.202;2023-03-01T09:25:22;99768.91;;;4.81;44.32
30618;BME280;17384;51.214;9.202;2023-03-01T09:27:51;99766.91;;;4.83;44.92
30618;BME280;17384;51.214;9.202;2023-03-01T09:30:17;99760.53;;;4.49;44.91
30618;BME280;17384;51.214;9.202;2023-03-01T09:32:43;99766.31;;;4.97;44.20
30618;BME280;17384;51.214;9.202;2023-03-01T09:35:11;99750.25;;;5.57;44.18
30618;BME280;17384;51.214;9.202;2023-03-01T09:37:37;99745.03;;;6.64;43.06
30618;BME280;17384;51.214;9.202;2023-03-01T09:40:12;99742.03;;;6.75;40.90
30618;BME280;17384;51.214;9.202;2023-03-01T09:42:48;99740.44;;;6.24;41.86
30618;BME280;17384;51.214;9.202;2023-03-01T09:45:38;99740.63;;;6.39;40.85
30618;BME280;17384;51.214;9.202;2023-03-01T09:48:16;99739.25;;;5.85;41.50
30618;BME280;17384;51.214;9.202;2023-03-01T09:50:44;99749.44;;;5.65;42.17
30618;BME280;17384;51.214;9.202;2023-03-01T09:53:17;99740.41;;;6.16;41.14
30618;BME280;17384;51.214;9.202;2023-03-01T09:55:46;99741.97;;;6.27;41.60
30618;BME280;17384;51.214;9.202;2023-03-01T10:01:35;99738.44;;;7.32;38.42
30618;BME280;17384;51.214;9.202;2023-03-01T10:04:27;99725.06;;;7.94;39.17
30618;BME280;17384;51.214;9.202;2023-03-01T10:09:38;99734.25;;;6.89;38.68
30618;BME280;17384;51.214;9.202;2023-03-01T10:12:12;99719.06;;;7.20;39.51
30618;BME280;17384;51.214;9.202;2023-03-01T10:15:04;99720.09;;;7.11;39.40
30618;BME280;17384;51.214;9.202;2023-03-01T10:22:45;99715.59;;;7.51;37.22
30618;BME280;17384;51.214;9.202;2023-03-01T10:25:17;99710.63;;;7.78;37.89
30618;BME280;17384;51.214;9.202;2023-03-01T10:27:53;99721.22;;;8.19;38.29
30618;BME280;17384;51.214;9.202;2023-03-01T10:30:34;99705.03;;;7.33;37.33
30618;BME280;17384;51.214;9.202;2023-03-01T10:33:01;99721.47;;;6.83;38.94
30618;BME280;17384;51.214;9.202;2023-03-01T10:35:34;99695.94;;;7.18;39.11
30618;BME280;17384;51.214;9.202;2023-03-01T10:38:07;99701.63;;;7.39;39.75
30618;BME280;17384;51.214;9.202;2023-03-01T10:40:35;99708.50;;;7.66;39.24
30618;BME280;17384;51.214;9.202;2023-03-01T10:43:05;99704.03;;;7.73;38.76
30618;BME280;17384;51.214;9.202;2023-03-01T10:48:23;99694.34;;;7.56;37.60
30618;BME280;17384;51.214;9.202;2023-03-01T10:51:12;99686.66;;;7.28;37.64
30618;BME280;17384;51.214;9.202;2023-03-01T10:53:41;99677.28;;;7.63;38.71
30618;BME280;17384;51.214;9.202;2023-03-01T10:56:10;99679.13;;;8.93;36.06
30618;BME280;17384;51.214;9.202;2023-03-01T10:58:38;99677.47;;;9.36;36.65
30618;BME280;17384;51.214;9.202;2023-03-01T11:01:25;99672.53;;;8.50;35.86
30618;BME280;17384;51.214;9.202;2023-03-01T11:04:13;99669.44;;;8.30;36.61
30618;BME280;17384;51.214;9.202;2023-03-01T11:06:40;99670.81;;;8.95;36.22
30618;BME280;17384;51.214;9.202;2023-03-01T11:09:21;99665.78;;;9.06;35.21
30618;BME280;17384;51.214;9.202;2023-03-01T11:11:52;99663.00;;;8.77;35.72
30618;BME280;17384;51.214;9.202;2023-03-01T11:14:21;99670.66;;;9.26;36.00
30618;BME280;17384;51.214;9.202;2023-03-01T11:16:57;99671.66;;;10.56;34.11
30618;BME280;17384;51.214;9.202;2023-03-01T11:19:23;99660.19;;;10.81;31.41
30618;BME280;17384;51.214;9.202;2023-03-01T11:21:59;99660.25;;;10.88;31.97
30618;BME280;17384;51.214;9.202;2023-03-01T11:24:48;99656.66;;;11.09;33.23
30618;BME280;17384;51.214;9.202;2023-03-01T11:29:55;99656.31;;;10.91;31.55
30618;BME280;17384;51.214;9.202;2023-03-01T11:32:25;99647.84;;;9.05;35.05
30618;BME280;17384;51.214;9.202;2023-03-01T11:35:03;99630.56;;;9.65;34.51
30618;BME280;17384;51.214;9.202;2023-03-01T11:40:37;99644.34;;;9.49;33.93
30618;BME280;17384;51.214;9.202;2023-03-01T11:49:05;99640.47;;;10.09;34.52
30618;BME280;17384;51.214;9.202;2023-03-01T11:56:57;99615.19;;;9.87;33.94
30618;BME280;17384;51.214;9.202;2023-03-01T11:59:38;99626.31;;;10.13;34.42
30618;BME280;17384;51.214;9.202;2023-03-01T12:02:45;99621.41;;;11.22;32.55
30618;BME280;17384;51.214;9.202;2023-03-01T12:07:55;99628.59;;;10.74;33.43
30618;BME280;17384;51.214;9.202;2023-03-01T12:10:27;99625.75;;;10.33;31.03
30618;BME280;17384;51.214;9.202;2023-03-01T12:13:16;99617.88;;;10.02;31.60
30618;BME280;17384;51.214;9.202;2023-03-01T12:15:55;99627.88;;;9.36;33.96
30618;BME280;17384;51.214;9.202;2023-03-01T12:24:23;99605.00;;;9.53;32.65
30618;BME280;17384;51.214;9.202;2023-03-01T12:29:34;99601.97;;;8.45;33.39
30618;BME280;17384;51.214;9.202;2023-03-01T12:37:27;99570.44;;;10.55;34.79
30618;BME280;17384;51.214;9.202;2023-03-01T12:50:57;99580.78;;;10.24;33.69
30618;BME280;17384;51.214;9.202;2023-03-01T12:55:51;99559.84;;;10.17;33.39
30618;BME280;17384;51.214;9.202;2023-03-01T13:18:03;99558.16;;;9.23;36.11
30618;BME280;17384;51.214;9.202;2023-03-01T13:20:44;99556.50;;;9.58;34.16
30618;BME280;17384;51.214;9.202;2023-03-01T13:26:07;99545.97;;;10.06;34.00
30618;BME280;17384;51.214;9.202;2023-03-01T13:33:52;99550.22;;;8.63;34.46
30618;BME280;17384;51.214;9.202;2023-03-01T13:36:48;99546.94;;;8.30;36.00
30618;BME280;17384;51.214;9.202;2023-03-01T13:41:54;99525.59;;;9.16;34.76
30618;BME280;17384;51.214;9.202;2023-03-01T13:52:01;99519.03;;;8.37;34.21
30618;BME280;17384;51.214;9.202;2023-03-01T13:54:30;99527.81;;;9.28;34.41
30618;BME280;17384;51.214;9.202;2023-03-01T13:57:00;99507.06;;;9.71;33.71
30618;BME280;17384;51.214;9.202;2023-03-01T13:59:27;99519.34;;;11.00;31.49
30618;BME280;17384;51.214;9.202;2023-03-01T14:01:59;99526.75;;;10.22;31.78
30618;BME280;17384;51.214;9.202;2023-03-01T14:04:32;99518.09;;;10.33;30.17
30618;BME280;17384;51.214;9.202;2023-03-01T14:07:18;99502.34;;;10.01;31.45
30618;BME280;17384;51.214;9.202;2023-03-01T14:09:46;99506.34;;;10.05;31.04
30618;BME280;17384;51.214;9.202;2023-03-01T14:15:22;99497.69;;;10.37;29.86
30618;BME280;17384;51.214;9.202;2023-03-01T14:20:41;99496.72;;;10.02;31.03
30618;BME280;17384;51.214;9.202;2023-03-01T14:23:15;99503.66;;;10.89;30.54
30618;BME280;17384;51.214;9.202;2023-03-01T14:25:54;99492.78;;;11.36;27.91
30618;BME280;17384;51.214;9.202;2023-03-01T14:28:27;99503.31;;;9.93;28.58
30618;BME280;17384;51.214;9.202;2023-03-01T14:30:54;99485.47;;;10.55;28.68
30618;BME280;17384;51.214;9.202;2023-03-01T14:33:21;99493.56;;;11.24;27.33
30618;BME280;17384;51.214;9.202;2023-03-01T14:36:05;99497.38;;;10.88;28.53
30618;BME280;17384;51.214;9.202;2023-03-01T14:38:44;99487.31;;;9.98;29.34
30618;BME280;17384;51.214;9.202;2023-03-01T14:41:25;99470.53;;;9.88;28.82
30618;BME280;17384;51.214;9.202;2023-03-01T14:46:28;99469.72;;;10.15;29.26
30618;BME280;17384;51.214;9.202;2023-03-01T14:49:25;99467.31;;;11.37;27.58
30618;BME280;17384;51.214;9.202;2023-03-01T14:56:53;99459.13;;;9.50;29.73
30618;BME280;17384;51.214;9.202;2023-03-01T14:59:23;99458.44;;;10.33;28.13
30618;BME280;17384;51.214;9.202;2023-03-01T15:01:51;99467.09;;;10.01;28.39
30618;BME280;17384;51.214;9.202;2023-03-01T15:04:18;99454.28;;;9.45;30.04
30618;BME280;17384;51.214;9.202;2023-03-01T15:06:45;99460.09;;;10.34;28.98
30618;BME280;17384;51.214;9.202;2023-03-01T15:09:15;99460.47;;;10.59;27.94
30618;BME280;17384;51.214;9.202;2023-03-01T15:11:42;99462.00;;;10.75;28.39
30618;BME280;17384;51.214;9.202;2023-03-01T15:14:28;99457.84;;;10.16;30.01
30618;BME280;17384;51.214;9.202;2023-03-01T15:16:54;99451.38;;;10.39;29.32
30618;BME280;17384;51.214;9.202;2023-03-01T15:19:28;99450.31;;;10.74;29.53
30618;BME280;17384;51.214;9.202;2023-03-01T15:21:54;99460.31;;;12.09;27.46